sensor_id;sensor_type;location;lat;lon;timestamp;temperature;humidity
78694;SHT31;68029;51.978;5.646;2023-03-01T00:02:04;3.6;49.1
78694;SHT31;68029;51.978;5.646;2023-03-01T00:04:34;3.6;49.2
78694;SHT31;68029;51.978;5.646;2023-03-01T00:07:03;3.6;49.1
78694;SHT31;68029;51.978;5.646;2023-03-01T00:09:33;3.6;49.0
78694;SHT31;68029;51.978;5.646;2023-03-01T00:12:02;3.5;49.2
78694;SHT31;68029;51.978;5.646;2023-03-01T00:14:32;3.5;49.4
78694;SHT31;68029;51.978;5.646;2023-03-01T00:17:02;3.5;49.2
78694;SHT31;68029;51.978;5.646;2023-03-01T00:19:31;3.5;49.8
78694;SHT31;68029;51.978;5.646;2023-03-01T00:22:01;3.4;49.5
78694;SHT31;68029;51.978;5.646;2023-03-01T00:24:30;3.4;49.9
78694;SHT31;68029;51.978;5.646;2023-03-01T00:27:00;3.4;49.8
78694;SHT31;68029;51.978;5.646;2023-03-01T00:29:30;3.3;49.7
78694;SHT31;68029;51.978;5.646;2023-03-01T00:31:59;3.3;50.1
78694;SHT31;68029;51.978;5.646;2023-03-01T00:34:29;3.3;50.2
78694;SHT31;68029;51.978;5.646;2023-03-01T00:36:58;3.3;50.0
78694;SHT31;68029;51.978;5.646;2023-03-01T00:39:32;3.2;50.1
78694;SHT31;68029;51.978;5.646;2023-03-01T00:42:02;3.2;50.2
78694;SHT31;68029;51.978;5.646;2023-03-01T00:44:32;3.2;50.2
78694;SHT31;68029;51.978;5.646;2023-03-01T00:47:01;3.2;50.2
78694;SHT31;68029;51.978;5.646;2023-03-01T00:49:31;3.1;50.2
78694;SHT31;68029;51.978;5.646;2023-03-01T00:52:00;3.1;50.4
78694;SHT31;68029;51.978;5.646;2023-03-01T00:54:30;3.0;50.5
78694;SHT31;68029;51.978;5.646;2023-03-01T00:56:59;3.0;50.8
78694;SHT31;68029;51.978;5.646;2023-03-01T00:59:29;3.0;50.6
78694;SHT31;68029;51.978;5.646;2023-03-01T01:01:58;3.0;50.9
78694;SHT31;68029;51.978;5.646;2023-03-01T01:04:30;2.9;51.3
78694;SHT31;68029;51.978;5.646;2023-03-01T01:07:01;2.9;51.1
78694;SHT31;68029;51.978;5.646;2023-03-01T01:09:31;2.9;51.3
78694;SHT31;68029;51.978;5.646;2023-03-01T01:12:00;2.9;50.4
78694;SHT31;68029;51.978;5.646;2023-03-01T01:14:30;2.9;51.1
78694;SHT31;68029;51.978;5.646;2023-03-01T01:17:00;2.8;51.6
78694;SHT31;68029;51.978;5.646;2023-03-01T01:19:30;2.8;51.5
78694;SHT31;68029;51.978;5.646;2023-03-01T01:22:00;2.8;51.3
78694;SHT31;68029;51.978;5.646;2023-03-01T01:24:30;2.8;51.7
78694;SHT31;68029;51.978;5.646;2023-03-01T01:27:00;2.7;51.7
78694;SHT31;68029;51.978;5.646;2023-03-01T01:29:30;2.7;51.5
78694;SHT31;68029;51.978;5.646;2023-03-01T01:32:01;2.7;51.2
78694;SHT31;68029;51.978;5.646;2023-03-01T01:34:30;2.7;51.8
78694;SHT31;68029;51.978;5.646;2023-03-01T01:37:00;2.6;51.8
78694;SHT31;68029;51.978;5.646;2023-03-01T01:39:30;2.6;51.7
78694;SHT31;68029;51.978;5.646;2023-03-01T01:41:59;2.6;51.9
78694;SHT31;68029;51.978;5.646;2023-03-01T01:44:29;2.5;52.4
78694;SHT31;68029;51.978;5.646;2023-03-01T01:47:02;2.5;52.8
78694;SHT31;68029;51.978;5.646;2023-03-01T01:49:37;2.5;52.7
78694;SHT31;68029;51.978;5.646;2023-03-01T01:52:11;2.5;52.9
78694;SHT31;68029;51.978;5.646;2023-03-01T01:54:47;2.4;52.6
78694;SHT31;68029;51.978;5.646;2023-03-01T01:57:21;2.4;52.9
78694;SHT31;68029;51.978;5.646;2023-03-01T01:59:53;2.4;53.0
78694;SHT31;68029;51.978;5.646;2023-03-01T02:02:24;2.4;52.9
78694;SHT31;68029;51.978;5.646;2023-03-01T02:05:03;2.4;53.0
78694;SHT31;68029;51.978;5.646;2023-03-01T02:07:39;2.3;53.1
78694;SHT31;68029;51.978;5.646;2023-03-01T02:10:10;2.3;53.3
78694;SHT31;68029;51.978;5.646;2023-03-01T02:12:39;2.3;53.1
78694;SHT31;68029;51.978;5.646;2023-03-01T02:15:09;2.3;52.7
78694;SHT31;68029;51.978;5.646;2023-03-01T02:17:39;2.3;53.0
78694;SHT31;68029;51.978;5.646;2023-03-01T02:20:19;2.3;53.4
78694;SHT31;68029;51.978;5.646;2023-03-01T02:22:52;2.2;53.5
78694;SHT31;68029;51.978;5.646;2023-03-01T02:25:32;2.2;53.3
78694;SHT31;68029;51.978;5.646;2023-03-01T02:28:10;2.2;53.6
78694;SHT31;68029;51.978;5.646;2023-03-01T02:30:44;2.2;53.2
78694;SHT31;68029;51.978;5.646;2023-03-01T02:34:13;2.2;53.3
78694;SHT31;68029;51.978;5.646;2023-03-01T02:36:47;2.2;53.6
78694;SHT31;68029;51.978;5.646;2023-03-01T02:39:19;2.2;53.7
78694;SHT31;68029;51.978;5.646;2023-03-01T02:41:53;2.1;53.8
78694;SHT31;68029;51.978;5.646;2023-03-01T02:44:23;2.1;54.0
78694;SHT31;68029;51.978;5.646;2023-03-01T02:46:56;2.1;53.9
78694;SHT31;68029;51.978;5.646;2023-03-01T02:49:27;2.1;53.7
78694;SHT31;68029;51.978;5.646;2023-03-01T02:52:22;2.1;53.1
78694;SHT31;68029;51.978;5.646;2023-03-01T02:54:59;2.0;53.5
78694;SHT31;68029;51.978;5.646;2023-03-01T02:57:32;2.0;54.0
78694;SHT31;68029;51.978;5.646;2023-03-01T03:00:05;2.0;53.6
78694;SHT31;68029;51.978;5.646;2023-03-01T03:02:36;2.0;53.6
78694;SHT31;68029;51.978;5.646;2023-03-01T03:05:10;2.0;53.5
78694;SHT31;68029;51.978;5.646;2023-03-01T03:07:43;1.9;53.5
78694;SHT31;68029;51.978;5.646;2023-03-01T03:10:16;1.9;53.5
78694;SHT31;68029;51.978;5.646;2023-03-01T03:12:48;1.9;53.2
78694;SHT31;68029;51.978;5.646;2023-03-01T03:15:19;1.9;53.3
78694;SHT31;68029;51.978;5.646;2023-03-01T03:17:51;1.8;53.3
78694;SHT31;68029;51.978;5.646;2023-03-01T03:20:23;1.8;54.1
78694;SHT31;68029;51.978;5.646;2023-03-01T03:22:56;1.8;54.2
78694;SHT31;68029;51.978;5.646;2023-03-01T03:25:28;1.7;54.3
78694;SHT31;68029;51.978;5.646;2023-03-01T03:28:00;1.7;54.8
78694;SHT31;68029;51.978;5.646;2023-03-01T03:30:31;1.7;55.2
78694;SHT31;68029;51.978;5.646;2023-03-01T03:33:02;1.7;54.8
78694;SHT31;68029;51.978;5.646;2023-03-01T03:35:38;1.6;55.1
78694;SHT31;68029;51.978;5.646;2023-03-01T03:38:11;1.6;55.5
78694;SHT31;68029;51.978;5.646;2023-03-01T03:40:46;1.6;55.1
78694;SHT31;68029;51.978;5.646;2023-03-01T03:43:17;1.6;55.5
78694;SHT31;68029;51.978;5.646;2023-03-01T03:45:49;1.6;55.5
78694;SHT31;68029;51.978;5.646;2023-03-01T03:48:20;1.6;55.5
78694;SHT31;68029;51.978;5.646;2023-03-01T03:50:52;1.6;55.7
78694;SHT31;68029;51.978;5.646;2023-03-01T03:53:24;1.5;55.5
78694;SHT31;68029;51.978;5.646;2023-03-01T03:55:56;1.5;55.8
78694;SHT31;68029;51.978;5.646;2023-03-01T03:58:26;1.5;55.9
78694;SHT31;68029;51.978;5.646;2023-03-01T04:00:57;1.5;55.9
78694;SHT31;68029;51.978;5.646;2023-03-01T04:03:29;1.5;55.4
78694;SHT31;68029;51.978;5.646;2023-03-01T04:06:00;1.5;55.8
78694;SHT31;68029;51.978;5.646;2023-03-01T04:08:31;1.5;56.0
78694;SHT31;68029;51.978;5.646;2023-03-01T04:11:03;1.5;55.7
78694;SHT31;68029;51.978;5.646;2023-03-01T04:13:57;1.5;55.8
78694;SHT31;68029;51.978;5.646;2023-03-01T04:16:27;1.5;55.7
78694;SHT31;68029;51.978;5.646;2023-03-01T04:18:56;1.5;55.7
78694;SHT31;68029;51.978;5.646;2023-03-01T04:21:28;1.5;55.3
78694;SHT31;68029;51.978;5.646;2023-03-01T04:23:58;1.5;55.4
78694;SHT31;68029;51.978;5.646;2023-03-01T04:26:31;1.5;55.3
78694;SHT31;68029;51.978;5.646;2023-03-01T04:29:00;1.5;55.3
78694;SHT31;68029;51.978;5.646;2023-03-01T04:31:30;1.5;55.4
78694;SHT31;68029;51.978;5.646;2023-03-01T04:34:00;1.5;55.2
78694;SHT31;68029;51.978;5.646;2023-03-01T04:36:31;1.5;55.1
78694;SHT31;68029;51.978;5.646;2023-03-01T04:39:02;1.4;55.4
78694;SHT31;68029;51.978;5.646;2023-03-01T04:41:40;1.4;55.5
78694;SHT31;68029;51.978;5.646;2023-03-01T04:44:12;1.4;55.0
78694;SHT31;68029;51.978;5.646;2023-03-01T04:46:42;1.4;54.9
78694;SHT31;68029;51.978;5.646;2023-03-01T04:49:11;1.4;55.4
78694;SHT31;68029;51.978;5.646;2023-03-01T04:51:41;1.4;55.5
78694;SHT31;68029;51.978;5.646;2023-03-01T04:54:11;1.4;54.9
78694;SHT31;68029;51.978;5.646;2023-03-01T04:56:40;1.4;55.4
78694;SHT31;68029;51.978;5.646;2023-03-01T04:59:10;1.4;55.4
78694;SHT31;68029;51.978;5.646;2023-03-01T05:01:40;1.4;55.1
78694;SHT31;68029;51.978;5.646;2023-03-01T05:04:10;1.4;55.4
78694;SHT31;68029;51.978;5.646;2023-03-01T05:06:40;1.4;55.7
78694;SHT31;68029;51.978;5.646;2023-03-01T05:09:09;1.4;55.2
78694;SHT31;68029;51.978;5.646;2023-03-01T05:11:40;1.4;55.4
78694;SHT31;68029;51.978;5.646;2023-03-01T05:14:10;1.4;55.3
78694;SHT31;68029;51.978;5.646;2023-03-01T05:16:41;1.4;55.3
78694;SHT31;68029;51.978;5.646;2023-03-01T05:19:10;1.4;55.0
78694;SHT31;68029;51.978;5.646;2023-03-01T05:21:43;1.4;55.0
78694;SHT31;68029;51.978;5.646;2023-03-01T05:24:32;1.4;55.3
78694;SHT31;68029;51.978;5.646;2023-03-01T05:27:03;1.3;55.7
78694;SHT31;68029;51.978;5.646;2023-03-01T05:29:34;1.3;55.9
78694;SHT31;68029;51.978;5.646;2023-03-01T05:32:04;1.3;56.3
78694;SHT31;68029;51.978;5.646;2023-03-01T05:34:35;1.3;56.3
78694;SHT31;68029;51.978;5.646;2023-03-01T05:37:05;1.3;56.7
78694;SHT31;68029;51.978;5.646;2023-03-01T05:39:36;1.2;56.7
78694;SHT31;68029;51.978;5.646;2023-03-01T05:42:05;1.2;57.0
78694;SHT31;68029;51.978;5.646;2023-03-01T05:44:36;1.2;57.1
78694;SHT31;68029;51.978;5.646;2023-03-01T05:47:05;1.1;57.4
78694;SHT31;68029;51.978;5.646;2023-03-01T05:49:35;1.1;57.3
78694;SHT31;68029;51.978;5.646;2023-03-01T05:52:04;1.1;57.5
78694;SHT31;68029;51.978;5.646;2023-03-01T05:54:34;1.1;57.5
78694;SHT31;68029;51.978;5.646;2023-03-01T05:57:03;1.0;57.6
78694;SHT31;68029;51.978;5.646;2023-03-01T05:59:33;1.0;57.6
78694;SHT31;68029;51.978;5.646;2023-03-01T06:02:04;1.0;57.6
78694;SHT31;68029;51.978;5.646;2023-03-01T06:04:33;1.0;57.5
78694;SHT31;68029;51.978;5.646;2023-03-01T06:07:03;1.0;57.4
78694;SHT31;68029;51.978;5.646;2023-03-01T06:09:32;1.0;57.0
78694;SHT31;68029;51.978;5.646;2023-03-01T06:12:02;1.0;56.9
78694;SHT31;68029;51.978;5.646;2023-03-01T06:14:32;0.9;56.7
78694;SHT31;68029;51.978;5.646;2023-03-01T06:17:03;0.9;57.1
78694;SHT31;68029;51.978;5.646;2023-03-01T06:19:33;0.9;57.1
78694;SHT31;68029;51.978;5.646;2023-03-01T06:22:02;0.9;57.0
78694;SHT31;68029;51.978;5.646;2023-03-01T06:24:32;0.9;57.1
78694;SHT31;68029;51.978;5.646;2023-03-01T06:27:01;0.9;57.3
78694;SHT31;68029;51.978;5.646;2023-03-01T06:29:31;0.9;59.2
78694;SHT31;68029;51.978;5.646;2023-03-01T06:32:00;0.9;57.8
78694;SHT31;68029;51.978;5.646;2023-03-01T06:34:31;0.9;57.6
78694;SHT31;68029;51.978;5.646;2023-03-01T06:37:01;0.9;57.5
78694;SHT31;68029;51.978;5.646;2023-03-01T06:39:32;0.9;57.8
78694;SHT31;68029;51.978;5.646;2023-03-01T06:42:02;0.9;57.5
78694;SHT31;68029;51.978;5.646;2023-03-01T06:44:31;0.9;58.0
78694;SHT31;68029;51.978;5.646;2023-03-01T06:47:01;0.9;57.5
78694;SHT31;68029;51.978;5.646;2023-03-01T06:49:31;1.0;57.8
78694;SHT31;68029;51.978;5.646;2023-03-01T06:52:00;1.0;57.5
78694;SHT31;68029;51.978;5.646;2023-03-01T06:54:32;1.0;58.1
78694;SHT31;68029;51.978;5.646;2023-03-01T06:57:01;1.0;58.2
78694;SHT31;68029;51.978;5.646;2023-03-01T06:59:31;1.0;58.7
78694;SHT31;68029;51.978;5.646;2023-03-01T07:02:00;1.1;58.4
78694;SHT31;68029;51.978;5.646;2023-03-01T07:04:30;1.1;58.5
78694;SHT31;68029;51.978;5.646;2023-03-01T07:07:01;1.2;58.9
78694;SHT31;68029;51.978;5.646;2023-03-01T07:09:31;1.3;58.6
78694;SHT31;68029;51.978;5.646;2023-03-01T07:12:01;1.4;58.5
78694;SHT31;68029;51.978;5.646;2023-03-01T07:14:30;1.4;58.2
78694;SHT31;68029;51.978;5.646;2023-03-01T07:17:00;1.5;58.3
78694;SHT31;68029;51.978;5.646;2023-03-01T07:19:29;1.7;58.5
78694;SHT31;68029;51.978;5.646;2023-03-01T07:21:59;1.8;58.5
78694;SHT31;68029;51.978;5.646;2023-03-01T07:24:29;1.9;58.4
78694;SHT31;68029;51.978;5.646;2023-03-01T07:26:58;2.1;58.1
78694;SHT31;68029;51.978;5.646;2023-03-01T07:29:30;2.3;58.0
78694;SHT31;68029;51.978;5.646;2023-03-01T07:31:59;2.5;57.2
78694;SHT31;68029;51.978;5.646;2023-03-01T07:34:29;2.6;56.9
78694;SHT31;68029;51.978;5.646;2023-03-01T07:36:59;2.8;56.7
78694;SHT31;68029;51.978;5.646;2023-03-01T07:39:29;3.0;55.4
78694;SHT31;68029;51.978;5.646;2023-03-01T07:41:58;3.2;55.1
78694;SHT31;68029;51.978;5.646;2023-03-01T07:44:28;3.4;54.9
78694;SHT31;68029;51.978;5.646;2023-03-01T07:46:57;3.6;54.8
78694;SHT31;68029;51.978;5.646;2023-03-01T07:49:27;3.8;53.5
78694;SHT31;68029;51.978;5.646;2023-03-01T07:51:56;4.0;53.3
78694;SHT31;68029;51.978;5.646;2023-03-01T07:54:26;4.2;54.0
78694;SHT31;68029;51.978;5.646;2023-03-01T07:56:58;4.4;53.1
78694;SHT31;68029;51.978;5.646;2023-03-01T07:59:27;4.7;51.1
78694;SHT31;68029;51.978;5.646;2023-03-01T08:01:57;4.9;50.5
78694;SHT31;68029;51.978;5.646;2023-03-01T08:04:27;5.1;50.1
78694;SHT31;68029;51.978;5.646;2023-03-01T08:06:57;5.3;49.8
78694;SHT31;68029;51.978;5.646;2023-03-01T08:09:26;5.5;49.0
78694;SHT31;68029;51.978;5.646;2023-03-01T08:11:58;5.8;47.7
78694;SHT31;68029;51.978;5.646;2023-03-01T08:14:28;6.0;47.4
78694;SHT31;68029;51.978;5.646;2023-03-01T08:16:58;6.2;46.1
78694;SHT31;68029;51.978;5.646;2023-03-01T08:19:30;6.3;46.9
78694;SHT31;68029;51.978;5.646;2023-03-01T08:22:01;6.5;45.3
78694;SHT31;68029;51.978;5.646;2023-03-01T08:24:31;6.7;44.8
78694;SHT31;68029;51.978;5.646;2023-03-01T08:27:03;6.9;44.8
78694;SHT31;68029;51.978;5.646;2023-03-01T08:29:33;7.1;44.4
78694;SHT31;68029;51.978;5.646;2023-03-01T08:32:03;7.3;44.2
78694;SHT31;68029;51.978;5.646;2023-03-01T08:34:33;7.5;43.5
78694;SHT31;68029;51.978;5.646;2023-03-01T08:37:02;7.7;42.7
78694;SHT31;68029;51.978;5.646;2023-03-01T08:39:32;7.8;42.7
78694;SHT31;68029;51.978;5.646;2023-03-01T08:42:02;8.0;41.7
78694;SHT31;68029;51.978;5.646;2023-03-01T08:44:31;8.1;41.6
78694;SHT31;68029;51.978;5.646;2023-03-01T08:47:04;8.3;40.8
78694;SHT31;68029;51.978;5.646;2023-03-01T08:49:33;8.4;40.4
78694;SHT31;68029;51.978;5.646;2023-03-01T08:52:03;8.5;40.3
78694;SHT31;68029;51.978;5.646;2023-03-01T08:54:33;8.7;41.5
78694;SHT31;68029;51.978;5.646;2023-03-01T08:57:03;8.8;39.5
78694;SHT31;68029;51.978;5.646;2023-03-01T08:59:33;9.0;39.2
78694;SHT31;68029;51.978;5.646;2023-03-01T09:02:05;9.1;38.7
78694;SHT31;68029;51.978;5.646;2023-03-01T09:04:35;9.3;38.4
78694;SHT31;68029;51.978;5.646;2023-03-01T09:07:04;9.4;38.3
78694;SHT31;68029;51.978;5.646;2023-03-01T09:09:34;9.5;37.9
78694;SHT31;68029;51.978;5.646;2023-03-01T09:12:04;9.6;37.8
78694;SHT31;68029;51.978;5.646;2023-03-01T09:14:34;9.7;37.6
78694;SHT31;68029;51.978;5.646;2023-03-01T09:17:05;9.9;38.1
78694;SHT31;68029;51.978;5.646;2023-03-01T09:19:34;10.0;36.8
78694;SHT31;68029;51.978;5.646;2023-03-01T09:22:04;10.1;36.7
78694;SHT31;68029;51.978;5.646;2023-03-01T09:24:36;10.2;36.4
78694;SHT31;68029;51.978;5.646;2023-03-01T09:27:06;10.3;36.1
78694;SHT31;68029;51.978;5.646;2023-03-01T09:29:37;10.4;36.0
78694;SHT31;68029;51.978;5.646;2023-03-01T09:32:07;10.4;36.1
78694;SHT31;68029;51.978;5.646;2023-03-01T09:34:37;10.5;36.1
78694;SHT31;68029;51.978;5.646;2023-03-01T09:37:32;10.6;35.8
78694;SHT31;68029;51.978;5.646;2023-03-01T09:40:03;10.7;34.9
78694;SHT31;68029;51.978;5.646;2023-03-01T09:42:36;10.8;34.9
78694;SHT31;68029;51.978;5.646;2023-03-01T09:45:18;10.9;35.0
78694;SHT31;68029;51.978;5.646;2023-03-01T09:47:51;11.0;35.3
78694;SHT31;68029;51.978;5.646;2023-03-01T09:50:31;11.1;34.6
78694;SHT31;68029;51.978;5.646;2023-03-01T09:53:03;11.3;33.3
78694;SHT31;68029;51.978;5.646;2023-03-01T09:55:40;11.4;33.0
78694;SHT31;68029;51.978;5.646;2023-03-01T09:58:45;11.5;32.1
78694;SHT31;68029;51.978;5.646;2023-03-01T10:01:35;11.5;32.7
78694;SHT31;68029;51.978;5.646;2023-03-01T10:04:27;11.6;32.1
78694;SHT31;68029;51.978;5.646;2023-03-01T10:07:13;11.6;31.8
78694;SHT31;68029;51.978;5.646;2023-03-01T10:09:43;11.7;31.5
78694;SHT31;68029;51.978;5.646;2023-03-01T10:12:17;11.8;31.0
78694;SHT31;68029;51.978;5.646;2023-03-01T10:14:54;11.9;30.5
78694;SHT31;68029;51.978;5.646;2023-03-01T10:17:32;12.0;30.3
78694;SHT31;68029;51.978;5.646;2023-03-01T10:20:15;12.1;30.7
78694;SHT31;68029;51.978;5.646;2023-03-01T10:22:47;12.2;30.1
78694;SHT31;68029;51.978;5.646;2023-03-01T10:25:36;12.2;30.2
78694;SHT31;68029;51.978;5.646;2023-03-01T10:28:18;12.4;29.5
78694;SHT31;68029;51.978;5.646;2023-03-01T10:30:49;12.5;29.8
78694;SHT31;68029;51.978;5.646;2023-03-01T10:33:23;12.6;29.4
78694;SHT31;68029;51.978;5.646;2023-03-01T10:35:53;12.7;29.6
78694;SHT31;68029;51.978;5.646;2023-03-01T10:38:23;12.8;29.9
78694;SHT31;68029;51.978;5.646;2023-03-01T10:40:55;12.9;29.0
78694;SHT31;68029;51.978;5.646;2023-03-01T10:43:31;13.1;28.0
78694;SHT31;68029;51.978;5.646;2023-03-01T10:46:22;13.3;28.4
78694;SHT31;68029;51.978;5.646;2023-03-01T10:49:05;13.4;27.8
78694;SHT31;68029;51.978;5.646;2023-03-01T10:51:38;13.5;27.3
78694;SHT31;68029;51.978;5.646;2023-03-01T10:54:18;13.6;27.1
78694;SHT31;68029;51.978;5.646;2023-03-01T10:56:50;13.7;27.4
78694;SHT31;68029;51.978;5.646;2023-03-01T10:59:26;13.8;27.0
78694;SHT31;68029;51.978;5.646;2023-03-01T11:02:12;13.9;27.1
78694;SHT31;68029;51.978;5.646;2023-03-01T11:04:38;14.0;27.5
78694;SHT31;68029;51.978;5.646;2023-03-01T11:07:09;14.2;27.0
78694;SHT31;68029;51.978;5.646;2023-03-01T11:09:39;14.3;25.9
78694;SHT31;68029;51.978;5.646;2023-03-01T11:12:14;14.3;26.2
78694;SHT31;68029;51.978;5.646;2023-03-01T11:14:49;14.3;26.4
78694;SHT31;68029;51.978;5.646;2023-03-01T11:17:24;14.3;26.6
78694;SHT31;68029;51.978;5.646;2023-03-01T11:20:10;14.3;26.1
78694;SHT31;68029;51.978;5.646;2023-03-01T11:22:47;14.4;26.7
78694;SHT31;68029;51.978;5.646;2023-03-01T11:25:21;14.4;26.7
78694;SHT31;68029;51.978;5.646;2023-03-01T11:27:53;14.4;26.3
78694;SHT31;68029;51.978;5.646;2023-03-01T11:30:28;14.5;26.4
78694;SHT31;68029;51.978;5.646;2023-03-01T11:33:16;14.6;26.6
78694;SHT31;68029;51.978;5.646;2023-03-01T11:35:55;14.7;26.2
78694;SHT31;68029;51.978;5.646;2023-03-01T11:38:29;14.8;26.2
78694;SHT31;68029;51.978;5.646;2023-03-01T11:41:06;15.0;24.7
78694;SHT31;68029;51.978;5.646;2023-03-01T11:43:47;15.1;25.4
78694;SHT31;68029;51.978;5.646;2023-03-01T11:46:51;15.2;24.9
78694;SHT31;68029;51.978;5.646;2023-03-01T11:49:36;15.4;24.0
78694;SHT31;68029;51.978;5.646;2023-03-01T11:52:19;15.5;24.6
78694;SHT31;68029;51.978;5.646;2023-03-01T11:54:59;15.5;24.1
78694;SHT31;68029;51.978;5.646;2023-03-01T11:57:46;15.6;24.6
78694;SHT31;68029;51.978;5.646;2023-03-01T12:00:26;15.6;24.5
78694;SHT31;68029;51.978;5.646;2023-03-01T12:07:05;15.7;25.1
78694;SHT31;68029;51.978;5.646;2023-03-01T12:09:46;15.7;24.7
78694;SHT31;68029;51.978;5.646;2023-03-01T12:12:28;15.7;25.4
78694;SHT31;68029;51.978;5.646;2023-03-01T12:15:28;15.8;25.3
78694;SHT31;68029;51.978;5.646;2023-03-01T12:18:13;15.8;24.7
78694;SHT31;68029;51.978;5.646;2023-03-01T12:20:58;15.8;25.2
78694;SHT31;68029;51.978;5.646;2023-03-01T12:23:52;15.9;24.6
78694;SHT31;68029;51.978;5.646;2023-03-01T12:26:30;15.9;24.2
78694;SHT31;68029;51.978;5.646;2023-03-01T12:29:13;16.0;24.6
78694;SHT31;68029;51.978;5.646;2023-03-01T12:32:06;16.0;24.4
78694;SHT31;68029;51.978;5.646;2023-03-01T12:34:58;16.0;24.0
78694;SHT31;68029;51.978;5.646;2023-03-01T12:37:38;16.0;24.4
78694;SHT31;68029;51.978;5.646;2023-03-01T12:40:29;16.0;24.1
78694;SHT31;68029;51.978;5.646;2023-03-01T12:43:28;16.1;23.9
78694;SHT31;68029;51.978;5.646;2023-03-01T12:46:14;16.1;24.7
78694;SHT31;68029;51.978;5.646;2023-03-01T12:48:56;16.1;24.1
78694;SHT31;68029;51.978;5.646;2023-03-01T12:51:31;16.2;24.1
78694;SHT31;68029;51.978;5.646;2023-03-01T12:54:09;16.2;24.0
78694;SHT31;68029;51.978;5.646;2023-03-01T12:56:42;16.3;24.4
78694;SHT31;68029;51.978;5.646;2023-03-01T12:59:22;16.4;23.0
78694;SHT31;68029;51.978;5.646;2023-03-01T13:02:03;16.4;23.3
78694;SHT31;68029;51.978;5.646;2023-03-01T13:04:44;16.6;23.2
78694;SHT31;68029;51.978;5.646;2023-03-01T13:07:27;16.6;22.9
78694;SHT31;68029;51.978;5.646;2023-03-01T13:10:11;16.7;22.9
78694;SHT31;68029;51.978;5.646;2023-03-01T13:13:08;16.8;22.7
78694;SHT31;68029;51.978;5.646;2023-03-01T13:15:37;16.8;23.3
78694;SHT31;68029;51.978;5.646;2023-03-01T13:18:28;16.8;23.0
78694;SHT31;68029;51.978;5.646;2023-03-01T13:21:01;16.9;23.8
78694;SHT31;68029;51.978;5.646;2023-03-01T13:23:37;17.0;22.4
78694;SHT31;68029;51.978;5.646;2023-03-01T13:26:13;17.0;22.8
78694;SHT31;68029;51.978;5.646;2023-03-01T13:29:00;17.1;22.7
78694;SHT31;68029;51.978;5.646;2023-03-01T13:33:45;17.1;23.8
78694;SHT31;68029;51.978;5.646;2023-03-01T13:36:48;17.3;23.2
78694;SHT31;68029;51.978;5.646;2023-03-01T13:39:30;17.4;22.9
78694;SHT31;68029;51.978;5.646;2023-03-01T13:42:25;17.5;22.0
78694;SHT31;68029;51.978;5.646;2023-03-01T13:44:43;17.6;22.2
78694;SHT31;68029;51.978;5.646;2023-03-01T13:47:17;17.6;22.0
78694;SHT31;68029;51.978;5.646;2023-03-01T13:49:53;17.7;21.8
78694;SHT31;68029;51.978;5.646;2023-03-01T13:52:43;17.7;22.1
78694;SHT31;68029;51.978;5.646;2023-03-01T13:55:21;17.8;22.3
78694;SHT31;68029;51.978;5.646;2023-03-01T13:57:56;17.9;21.7
78694;SHT31;68029;51.978;5.646;2023-03-01T14:00:30;17.9;22.2
78694;SHT31;68029;51.978;5.646;2023-03-01T14:03:10;17.9;21.7
78694;SHT31;68029;51.978;5.646;2023-03-01T14:05:41;18.0;21.3
78694;SHT31;68029;51.978;5.646;2023-03-01T14:08:22;18.0;21.8
78694;SHT31;68029;51.978;5.646;2023-03-01T14:11:58;18.1;21.7
78694;SHT31;68029;51.978;5.646;2023-03-01T14:14:39;18.2;21.5
78694;SHT31;68029;51.978;5.646;2023-03-01T14:17:39;18.3;21.0
78694;SHT31;68029;51.978;5.646;2023-03-01T14:22:48;18.4;21.1
78694;SHT31;68029;51.978;5.646;2023-03-01T14:25:22;18.4;20.5
78694;SHT31;68029;51.978;5.646;2023-03-01T14:27:55;18.5;20.6
78694;SHT31;68029;51.978;5.646;2023-03-01T14:30:27;18.5;20.6
78694;SHT31;68029;51.978;5.646;2023-03-01T14:33:02;18.5;20.3
78694;SHT31;68029;51.978;5.646;2023-03-01T14:35:35;18.5;20.3
78694;SHT31;68029;51.978;5.646;2023-03-01T14:38:04;18.5;20.7
78694;SHT31;68029;51.978;5.646;2023-03-01T14:40:36;18.5;20.5
78694;SHT31;68029;51.978;5.646;2023-03-01T14:43:12;18.5;19.9
78694;SHT31;68029;51.978;5.646;2023-03-01T14:45:50;18.5;20.4
78694;SHT31;68029;51.978;5.646;2023-03-01T14:48:21;18.5;20.0
78694;SHT31;68029;51.978;5.646;2023-03-01T14:50:51;18.6;20.2
78694;SHT31;68029;51.978;5.646;2023-03-01T14:53:24;18.6;20.3
78694;SHT31;68029;51.978;5.646;2023-03-01T14:55:56;18.6;20.1
78694;SHT31;68029;51.978;5.646;2023-03-01T14:58:32;18.6;20.2
78694;SHT31;68029;51.978;5.646;2023-03-01T15:01:07;18.5;20.7
78694;SHT31;68029;51.978;5.646;2023-03-01T15:03:41;18.3;20.4
78694;SHT31;68029;51.978;5.646;2023-03-01T15:06:14;18.2;20.2
78694;SHT31;68029;51.978;5.646;2023-03-01T15:08:49;18.0;20.4
78694;SHT31;68029;51.978;5.646;2023-03-01T15:11:22;17.8;20.6
78694;SHT31;68029;51.978;5.646;2023-03-01T15:13:52;17.7;21.1
78694;SHT31;68029;51.978;5.646;2023-03-01T15:16:25;17.5;20.9
78694;SHT31;68029;51.978;5.646;2023-03-01T15:18:58;17.3;21.1
78694;SHT31;68029;51.978;5.646;2023-03-01T15:21:31;17.0;21.1
78694;SHT31;68029;51.978;5.646;2023-03-01T15:24:05;16.8;22.0
78694;SHT31;68029;51.978;5.646;2023-03-01T15:26:41;16.5;21.6
78694;SHT31;68029;51.978;5.646;2023-03-01T15:29:17;16.3;21.7
78694;SHT31;68029;51.978;5.646;2023-03-01T15:31:57;16.1;22.3
78694;SHT31;68029;51.978;5.646;2023-03-01T15:34:29;15.9;22.1
78694;SHT31;68029;51.978;5.646;2023-03-01T15:37:03;15.7;22.2
78694;SHT31;68029;51.978;5.646;2023-03-01T15:39:38;15.6;22.6
78694;SHT31;68029;51.978;5.646;2023-03-01T15:42:12;15.4;23.0
78694;SHT31;68029;51.978;5.646;2023-03-01T15:44:44;15.4;23.4
78694;SHT31;68029;51.978;5.646;2023-03-01T15:47:29;15.3;23.0
78694;SHT31;68029;51.978;5.646;2023-03-01T15:50:00;15.2;22.9
78694;SHT31;68029;51.978;5.646;2023-03-01T15:52:34;15.1;23.1
78694;SHT31;68029;51.978;5.646;2023-03-01T15:55:16;14.9;23.3
78694;SHT31;68029;51.978;5.646;2023-03-01T15:57:47;14.6;23.0
78694;SHT31;68029;51.978;5.646;2023-03-01T16:00:18;14.4;23.5
78694;SHT31;68029;51.978;5.646;2023-03-01T16:02:47;14.3;23.9
78694;SHT31;68029;51.978;5.646;2023-03-01T16:05:19;14.1;24.1
78694;SHT31;68029;51.978;5.646;2023-03-01T16:07:50;13.9;24.6
78694;SHT31;68029;51.978;5.646;2023-03-01T16:10:21;13.8;24.8
78694;SHT31;68029;51.978;5.646;2023-03-01T16:12:51;13.6;24.8
78694;SHT31;68029;51.978;5.646;2023-03-01T16:15:24;13.5;24.6
78694;SHT31;68029;51.978;5.646;2023-03-01T16:17:54;13.2;25.6
78694;SHT31;68029;51.978;5.646;2023-03-01T16:20:25;13.0;25.8
78694;SHT31;68029;51.978;5.646;2023-03-01T16:22:57;12.9;25.8
78694;SHT31;68029;51.978;5.646;2023-03-01T16:25:29;12.7;25.8
78694;SHT31;68029;51.978;5.646;2023-03-01T16:27:59;12.6;26.6
78694;SHT31;68029;51.978;5.646;2023-03-01T16:30:34;12.4;26.4
78694;SHT31;68029;51.978;5.646;2023-03-01T16:33:05;12.3;26.8
78694;SHT31;68029;51.978;5.646;2023-03-01T16:35:39;12.1;27.0
78694;SHT31;68029;51.978;5.646;2023-03-01T16:38:09;12.0;27.7
78694;SHT31;68029;51.978;5.646;2023-03-01T16:40:38;12.0;28.5
78694;SHT31;68029;51.978;5.646;2023-03-01T16:43:08;11.9;28.1
78694;SHT31;68029;51.978;5.646;2023-03-01T16:45:38;11.8;27.6
78694;SHT31;68029;51.978;5.646;2023-03-01T16:48:12;11.8;28.1
78694;SHT31;68029;51.978;5.646;2023-03-01T16:50:42;11.7;28.2
78694;SHT31;68029;51.978;5.646;2023-03-01T16:53:11;11.6;28.8
78694;SHT31;68029;51.978;5.646;2023-03-01T16:55:41;11.5;28.4
78694;SHT31;68029;51.978;5.646;2023-03-01T16:58:12;11.5;29.0
78694;SHT31;68029;51.978;5.646;2023-03-01T17:00:43;11.4;29.3
78694;SHT31;68029;51.978;5.646;2023-03-01T17:03:13;11.4;29.5